This is the latest recevied weather packets stored in our database for station/object EA3KZ-1. If no packets are shown the sender has not sent any weather packets the latest 10 day(s).
| Time | Temp. | Humidity | Pressure | Rain* | Wind** | Luminosity | Snow |
|---|---|---|---|---|---|---|---|
| 1777362070 | 20° C | 62% | 1010.1 hPa | 0 mm | - | - | - |
| 1777361468 | 18.89° C | 64% | 1010.2 hPa | 0 mm | - | - | - |
| 1777360865 | 18.33° C | 64% | 1010.3 hPa | 0 mm | - | - | - |
| 1777360262 | 20° C | 60% | 1010.2 hPa | 0 mm | - | - | - |
| 1777359660 | 18.89° C | 63% | 1010.2 hPa | 0 mm | - | - | - |
| 1777359057 | 18.33° C | 64% | 1010.1 hPa | 0 mm | - | - | - |
| 1777358455 | 17.78° C | 65% | 1010 hPa | 0 mm | - | - | - |
| 1777357852 | 17.78° C | 65% | 1010.1 hPa | 0 mm | - | - | - |
| 1777357249 | 17.22° C | 66% | 1010.1 hPa | 0 mm | - | - | - |
| 1777356647 | 16.67° C | 67% | 1010.2 hPa | 0 mm | - | - | - |
| 1777356044 | 16.67° C | 68% | 1010.1 hPa | 0 mm | - | - | - |
| 1777355441 | 16.67° C | 70% | 1010.2 hPa | 0 mm | - | - | - |
| 1777354839 | 15.56° C | 71% | 1009.9 hPa | 0 mm | - | - | - |
| 1777354236 | 15° C | 72% | 1010 hPa | 0 mm | - | - | - |
| 1777353633 | 15° C | 73% | 1009.8 hPa | 0 mm | - | - | - |
| 1777353031 | 14.44° C | 73% | 1009.8 hPa | 0 mm | - | - | - |
| 1777352428 | 15° C | 72% | 1009.8 hPa | 0 mm | - | - | - |
| 1777351826 | 15° C | 71% | 1009.8 hPa | 0 mm | - | - | - |
| 1777351223 | 15° C | 71% | 1009.8 hPa | 0 mm | - | - | - |
| 1777350620 | 15° C | 70% | 1010 hPa | 0 mm | - | - | - |
| 1777350018 | 15° C | 71% | 1010 hPa | 0 mm | - | - | - |
| 1777349415 | 14.44° C | 74% | 1010.1 hPa | 0 mm | - | - | - |
| 1777348873 | 14.44° C | 75% | 1010.1 hPa | 0 mm | - | - | - |
| 1777348270 | 14.44° C | 76% | 1010.3 hPa | 0 mm | - | - | - |
| 1777347668 | 14.44° C | 76% | 1010.3 hPa | 0 mm | - | - | - |
* Rain latest hour (hover to see other rain measurements)
** Current wind speed in m/s (hover to see current wind gust speed)